sensor_id;sensor_type;location;lat;lon;timestamp;P1;durP1;ratioP1;P2;durP2;ratioP2
40669;SDS011;26355;45.528;9.234;2022-08-04T00:07:26;13.15;;;3.50;;
40669;SDS011;26355;45.528;9.234;2022-08-04T00:10:15;10.85;;;4.00;;
40669;SDS011;26355;45.528;9.234;2022-08-04T00:12:43;9.98;;;3.15;;
40669;SDS011;26355;45.528;9.234;2022-08-04T00:15:13;9.82;;;3.45;;
40669;SDS011;26355;45.528;9.234;2022-08-04T00:17:41;11.60;;;3.38;;
40669;SDS011;26355;45.528;9.234;2022-08-04T00:20:11;10.90;;;3.30;;
40669;SDS011;26355;45.528;9.234;2022-08-04T00:22:41;13.25;;;3.85;;
40669;SDS011;26355;45.528;9.234;2022-08-04T00:25:10;11.85;;;3.25;;
40669;SDS011;26355;45.528;9.234;2022-08-04T00:27:36;13.10;;;3.67;;
40669;SDS011;26355;45.528;9.234;2022-08-04T00:30:03;9.80;;;3.40;;
40669;SDS011;26355;45.528;9.234;2022-08-04T00:34:56;10.53;;;3.23;;
40669;SDS011;26355;45.528;9.234;2022-08-04T00:37:23;13.65;;;3.50;;
40669;SDS011;26355;45.528;9.234;2022-08-04T00:39:50;12.05;;;3.20;;
40669;SDS011;26355;45.528;9.234;2022-08-04T00:48:00;9.30;;;2.90;;
40669;SDS011;26355;45.528;9.234;2022-08-04T00:50:43;12.55;;;3.28;;
40669;SDS011;26355;45.528;9.234;2022-08-04T00:53:18;9.27;;;2.70;;
40669;SDS011;26355;45.528;9.234;2022-08-04T01:01:11;11.00;;;2.80;;
40669;SDS011;26355;45.528;9.234;2022-08-04T01:06:43;11.02;;;3.00;;
40669;SDS011;26355;45.528;9.234;2022-08-04T01:12:08;12.55;;;3.10;;
40669;SDS011;26355;45.528;9.234;2022-08-04T01:15:05;7.88;;;3.08;;
40669;SDS011;26355;45.528;9.234;2022-08-04T01:17:36;8.98;;;2.80;;
40669;SDS011;26355;45.528;9.234;2022-08-04T01:20:25;13.20;;;2.95;;
40669;SDS011;26355;45.528;9.234;2022-08-04T01:30:47;10.43;;;3.30;;
40669;SDS011;26355;45.528;9.234;2022-08-04T01:33:16;10.20;;;2.78;;
40669;SDS011;26355;45.528;9.234;2022-08-04T01:38:29;11.48;;;3.03;;
40669;SDS011;26355;45.528;9.234;2022-08-04T01:41:04;11.60;;;3.10;;
40669;SDS011;26355;45.528;9.234;2022-08-04T01:43:32;9.30;;;2.90;;
40669;SDS011;26355;45.528;9.234;2022-08-04T01:46:00;10.68;;;2.78;;
40669;SDS011;26355;45.528;9.234;2022-08-04T01:48:28;6.20;;;2.50;;
40669;SDS011;26355;45.528;9.234;2022-08-04T01:53:30;10.23;;;2.70;;
40669;SDS011;26355;45.528;9.234;2022-08-04T01:56:01;6.85;;;2.65;;
40669;SDS011;26355;45.528;9.234;2022-08-04T01:58:29;8.43;;;2.90;;
40669;SDS011;26355;45.528;9.234;2022-08-04T02:01:06;7.68;;;2.95;;
40669;SDS011;26355;45.528;9.234;2022-08-04T02:09:11;10.05;;;3.40;;
40669;SDS011;26355;45.528;9.234;2022-08-04T02:14:37;6.93;;;2.67;;
40669;SDS011;26355;45.528;9.234;2022-08-04T02:17:11;7.13;;;2.75;;
40669;SDS011;26355;45.528;9.234;2022-08-04T02:22:32;7.97;;;2.75;;
40669;SDS011;26355;45.528;9.234;2022-08-04T02:25:02;9.77;;;3.08;;
40669;SDS011;26355;45.528;9.234;2022-08-04T02:33:42;12.70;;;3.30;;
40669;SDS011;26355;45.528;9.234;2022-08-04T02:36:12;10.82;;;3.15;;
40669;SDS011;26355;45.528;9.234;2022-08-04T02:41:14;10.35;;;2.92;;
40669;SDS011;26355;45.528;9.234;2022-08-04T02:43:42;11.30;;;3.10;;
40669;SDS011;26355;45.528;9.234;2022-08-04T02:46:11;11.10;;;3.00;;
40669;SDS011;26355;45.528;9.234;2022-08-04T02:48:37;12.07;;;3.30;;
40669;SDS011;26355;45.528;9.234;2022-08-04T02:51:07;9.13;;;2.88;;
40669;SDS011;26355;45.528;9.234;2022-08-04T02:53:37;10.60;;;3.72;;
40669;SDS011;26355;45.528;9.234;2022-08-04T02:56:05;10.02;;;3.00;;
40669;SDS011;26355;45.528;9.234;2022-08-04T02:58:33;10.90;;;2.97;;
40669;SDS011;26355;45.528;9.234;2022-08-04T03:01:00;9.15;;;2.70;;
40669;SDS011;26355;45.528;9.234;2022-08-04T03:03:33;8.82;;;2.60;;
40669;SDS011;26355;45.528;9.234;2022-08-04T03:33:48;8.50;;;3.00;;
40669;SDS011;26355;45.528;9.234;2022-08-04T04:11:05;13.88;;;3.65;;
40669;SDS011;26355;45.528;9.234;2022-08-04T04:13:29;10.27;;;3.42;;
40669;SDS011;26355;45.528;9.234;2022-08-04T04:27:25;14.63;;;3.70;;
40669;SDS011;26355;45.528;9.234;2022-08-04T04:32:56;16.40;;;4.13;;
40669;SDS011;26355;45.528;9.234;2022-08-04T04:57:20;11.32;;;3.15;;
40669;SDS011;26355;45.528;9.234;2022-08-04T05:02:42;17.02;;;4.20;;
40669;SDS011;26355;45.528;9.234;2022-08-04T05:11:24;13.48;;;3.22;;
40669;SDS011;26355;45.528;9.234;2022-08-04T05:14:22;12.48;;;3.58;;
40669;SDS011;26355;45.528;9.234;2022-08-04T05:16:59;14.57;;;3.60;;
40669;SDS011;26355;45.528;9.234;2022-08-04T05:25:18;14.98;;;3.47;;
40669;SDS011;26355;45.528;9.234;2022-08-04T05:27:49;13.73;;;3.45;;
40669;SDS011;26355;45.528;9.234;2022-08-04T05:30:20;11.40;;;3.38;;
40669;SDS011;26355;45.528;9.234;2022-08-04T05:32:51;14.68;;;2.97;;
40669;SDS011;26355;45.528;9.234;2022-08-04T05:35:28;16.92;;;3.50;;
40669;SDS011;26355;45.528;9.234;2022-08-04T05:38:00;14.02;;;3.28;;
40669;SDS011;26355;45.528;9.234;2022-08-04T05:40:27;15.23;;;3.83;;
40669;SDS011;26355;45.528;9.234;2022-08-04T05:42:54;18.10;;;3.53;;
40669;SDS011;26355;45.528;9.234;2022-08-04T05:45:20;15.15;;;3.35;;
40669;SDS011;26355;45.528;9.234;2022-08-04T05:47:47;16.58;;;3.67;;
40669;SDS011;26355;45.528;9.234;2022-08-04T05:50:14;13.85;;;3.50;;
40669;SDS011;26355;45.528;9.234;2022-08-04T05:52:40;14.10;;;3.25;;
40669;SDS011;26355;45.528;9.234;2022-08-04T05:55:07;13.45;;;3.17;;
40669;SDS011;26355;45.528;9.234;2022-08-04T05:57:36;17.38;;;3.72;;
40669;SDS011;26355;45.528;9.234;2022-08-04T06:00:07;16.00;;;4.03;;
40669;SDS011;26355;45.528;9.234;2022-08-04T06:02:34;11.75;;;3.42;;
40669;SDS011;26355;45.528;9.234;2022-08-04T06:05:01;14.20;;;3.67;;
40669;SDS011;26355;45.528;9.234;2022-08-04T06:07:29;9.98;;;2.97;;
40669;SDS011;26355;45.528;9.234;2022-08-04T06:09:55;14.32;;;3.55;;
40669;SDS011;26355;45.528;9.234;2022-08-04T06:12:24;11.80;;;4.05;;
40669;SDS011;26355;45.528;9.234;2022-08-04T06:15:02;20.45;;;4.65;;
40669;SDS011;26355;45.528;9.234;2022-08-04T06:17:31;16.70;;;3.53;;
40669;SDS011;26355;45.528;9.234;2022-08-04T06:20:02;14.25;;;3.88;;
40669;SDS011;26355;45.528;9.234;2022-08-04T06:22:29;14.07;;;4.32;;
40669;SDS011;26355;45.528;9.234;2022-08-04T06:25:00;10.70;;;3.53;;
40669;SDS011;26355;45.528;9.234;2022-08-04T06:27:28;14.07;;;3.60;;
40669;SDS011;26355;45.528;9.234;2022-08-04T06:32:22;14.68;;;3.80;;
40669;SDS011;26355;45.528;9.234;2022-08-04T06:35:01;17.38;;;4.38;;
40669;SDS011;26355;45.528;9.234;2022-08-04T06:37:29;13.20;;;3.58;;
40669;SDS011;26355;45.528;9.234;2022-08-04T06:39:56;16.05;;;4.85;;
40669;SDS011;26355;45.528;9.234;2022-08-04T06:42:24;16.77;;;3.60;;
40669;SDS011;26355;45.528;9.234;2022-08-04T06:44:53;16.15;;;3.90;;
40669;SDS011;26355;45.528;9.234;2022-08-04T06:47:21;14.80;;;3.40;;
40669;SDS011;26355;45.528;9.234;2022-08-04T06:49:48;17.45;;;3.78;;
40669;SDS011;26355;45.528;9.234;2022-08-04T06:52:19;14.95;;;3.53;;
40669;SDS011;26355;45.528;9.234;2022-08-04T06:54:51;14.82;;;3.95;;
40669;SDS011;26355;45.528;9.234;2022-08-04T06:57:22;13.98;;;3.40;;
40669;SDS011;26355;45.528;9.234;2022-08-04T06:59:53;8.80;;;2.60;;
40669;SDS011;26355;45.528;9.234;2022-08-04T07:02:25;8.93;;;3.00;;
40669;SDS011;26355;45.528;9.234;2022-08-04T07:04:53;17.58;;;3.45;;
40669;SDS011;26355;45.528;9.234;2022-08-04T07:07:20;12.05;;;2.72;;
40669;SDS011;26355;45.528;9.234;2022-08-04T07:09:48;9.95;;;2.80;;
40669;SDS011;26355;45.528;9.234;2022-08-04T07:12:14;13.67;;;2.90;;
40669;SDS011;26355;45.528;9.234;2022-08-04T07:14:45;11.85;;;2.95;;
40669;SDS011;26355;45.528;9.234;2022-08-04T07:17:12;7.63;;;2.72;;
40669;SDS011;26355;45.528;9.234;2022-08-04T07:19:39;10.82;;;3.00;;
40669;SDS011;26355;45.528;9.234;2022-08-04T07:22:06;13.90;;;3.17;;
40669;SDS011;26355;45.528;9.234;2022-08-04T07:24:34;11.48;;;2.70;;
40669;SDS011;26355;45.528;9.234;2022-08-04T07:27:02;9.40;;;2.75;;
40669;SDS011;26355;45.528;9.234;2022-08-04T07:29:29;9.52;;;2.85;;
40669;SDS011;26355;45.528;9.234;2022-08-04T07:31:55;9.05;;;2.60;;
40669;SDS011;26355;45.528;9.234;2022-08-04T07:34:22;7.57;;;2.35;;
40669;SDS011;26355;45.528;9.234;2022-08-04T07:36:50;8.13;;;2.55;;
40669;SDS011;26355;45.528;9.234;2022-08-04T07:39:17;11.23;;;2.70;;
40669;SDS011;26355;45.528;9.234;2022-08-04T07:41:45;10.38;;;2.63;;
40669;SDS011;26355;45.528;9.234;2022-08-04T07:44:12;12.30;;;2.47;;
40669;SDS011;26355;45.528;9.234;2022-08-04T07:46:39;9.00;;;2.70;;
40669;SDS011;26355;45.528;9.234;2022-08-04T07:49:05;8.82;;;2.42;;
40669;SDS011;26355;45.528;9.234;2022-08-04T07:51:32;9.18;;;2.45;;
40669;SDS011;26355;45.528;9.234;2022-08-04T07:53:59;9.25;;;2.58;;
40669;SDS011;26355;45.528;9.234;2022-08-04T07:56:29;9.65;;;2.45;;
40669;SDS011;26355;45.528;9.234;2022-08-04T07:59:02;8.85;;;2.47;;
40669;SDS011;26355;45.528;9.234;2022-08-04T08:01:28;11.07;;;2.60;;
40669;SDS011;26355;45.528;9.234;2022-08-04T08:03:55;8.13;;;2.40;;
40669;SDS011;26355;45.528;9.234;2022-08-04T08:06:22;7.72;;;2.70;;
40669;SDS011;26355;45.528;9.234;2022-08-04T08:08:48;8.32;;;2.50;;
40669;SDS011;26355;45.528;9.234;2022-08-04T08:11:14;5.40;;;1.90;;
40669;SDS011;26355;45.528;9.234;2022-08-04T08:13:41;6.68;;;2.20;;
40669;SDS011;26355;45.528;9.234;2022-08-04T08:16:08;11.15;;;2.60;;
40669;SDS011;26355;45.528;9.234;2022-08-04T08:18:35;10.43;;;2.50;;
40669;SDS011;26355;45.528;9.234;2022-08-04T08:21:01;8.80;;;2.37;;
40669;SDS011;26355;45.528;9.234;2022-08-04T08:23:28;8.30;;;2.47;;
40669;SDS011;26355;45.528;9.234;2022-08-04T08:25:55;10.82;;;2.67;;
40669;SDS011;26355;45.528;9.234;2022-08-04T08:28:21;9.53;;;2.57;;
40669;SDS011;26355;45.528;9.234;2022-08-04T08:30:47;9.90;;;2.13;;
40669;SDS011;26355;45.528;9.234;2022-08-04T08:33:13;10.13;;;2.00;;
40669;SDS011;26355;45.528;9.234;2022-08-04T08:38:08;14.35;;;2.80;;
40669;SDS011;26355;45.528;9.234;2022-08-04T08:52:03;9.77;;;2.20;;
40669;SDS011;26355;45.528;9.234;2022-08-04T08:55:06;12.07;;;2.20;;
40669;SDS011;26355;45.528;9.234;2022-08-04T09:00:30;9.48;;;2.40;;
40669;SDS011;26355;45.528;9.234;2022-08-04T09:12:38;9.25;;;2.30;;
40669;SDS011;26355;45.528;9.234;2022-08-04T09:17:39;10.90;;;2.53;;
40669;SDS011;26355;45.528;9.234;2022-08-04T09:23:17;7.50;;;2.30;;
40669;SDS011;26355;45.528;9.234;2022-08-04T09:28:21;9.67;;;1.90;;
40669;SDS011;26355;45.528;9.234;2022-08-04T09:31:08;6.47;;;2.00;;
40669;SDS011;26355;45.528;9.234;2022-08-04T09:36:12;11.38;;;2.63;;
40669;SDS011;26355;45.528;9.234;2022-08-04T09:42:03;10.43;;;2.60;;
40669;SDS011;26355;45.528;9.234;2022-08-04T09:47:38;13.20;;;2.53;;
40669;SDS011;26355;45.528;9.234;2022-08-04T10:01:09;9.50;;;2.80;;
40669;SDS011;26355;45.528;9.234;2022-08-04T10:03:40;7.65;;;2.33;;
40669;SDS011;26355;45.528;9.234;2022-08-04T10:09:00;8.77;;;2.40;;
40669;SDS011;26355;45.528;9.234;2022-08-04T10:17:27;7.95;;;2.08;;
40669;SDS011;26355;45.528;9.234;2022-08-04T10:29:15;8.43;;;2.60;;
40669;SDS011;26355;45.528;9.234;2022-08-04T10:34:35;8.80;;;2.65;;
40669;SDS011;26355;45.528;9.234;2022-08-04T10:37:15;8.32;;;2.65;;
40669;SDS011;26355;45.528;9.234;2022-08-04T10:39:51;10.18;;;3.17;;
40669;SDS011;26355;45.528;9.234;2022-08-04T10:42:44;9.10;;;2.80;;
40669;SDS011;26355;45.528;9.234;2022-08-04T10:45:18;12.50;;;2.83;;
40669;SDS011;26355;45.528;9.234;2022-08-04T10:47:58;10.43;;;2.92;;
40669;SDS011;26355;45.528;9.234;2022-08-04T10:50:31;9.75;;;2.70;;
40669;SDS011;26355;45.528;9.234;2022-08-04T10:53:22;8.52;;;2.90;;
40669;SDS011;26355;45.528;9.234;2022-08-04T10:55:51;10.05;;;2.83;;
40669;SDS011;26355;45.528;9.234;2022-08-04T10:58:29;7.72;;;2.70;;
40669;SDS011;26355;45.528;9.234;2022-08-04T11:03:54;10.85;;;3.00;;
40669;SDS011;26355;45.528;9.234;2022-08-04T11:06:24;12.40;;;3.55;;
40669;SDS011;26355;45.528;9.234;2022-08-04T11:14:03;11.30;;;3.22;;
40669;SDS011;26355;45.528;9.234;2022-08-04T11:19:16;10.98;;;3.20;;
40669;SDS011;26355;45.528;9.234;2022-08-04T11:21:48;10.43;;;2.90;;
40669;SDS011;26355;45.528;9.234;2022-08-04T11:27:08;9.13;;;3.25;;
40669;SDS011;26355;45.528;9.234;2022-08-04T11:29:48;10.52;;;3.13;;
40669;SDS011;26355;45.528;9.234;2022-08-04T11:32:19;8.73;;;3.10;;
40669;SDS011;26355;45.528;9.234;2022-08-04T11:34:51;10.48;;;3.08;;
40669;SDS011;26355;45.528;9.234;2022-08-04T11:37:26;9.05;;;2.78;;
40669;SDS011;26355;45.528;9.234;2022-08-04T11:40:03;10.13;;;3.03;;
40669;SDS011;26355;45.528;9.234;2022-08-04T11:42:37;9.77;;;3.08;;
40669;SDS011;26355;45.528;9.234;2022-08-04T11:45:15;10.60;;;3.00;;
40669;SDS011;26355;45.528;9.234;2022-08-04T11:47:53;9.52;;;2.80;;
40669;SDS011;26355;45.528;9.234;2022-08-04T11:50:36;7.15;;;2.63;;
40669;SDS011;26355;45.528;9.234;2022-08-04T11:53:09;9.52;;;3.22;;
40669;SDS011;26355;45.528;9.234;2022-08-04T11:55:41;10.15;;;2.97;;
40669;SDS011;26355;45.528;9.234;2022-08-04T11:58:08;9.95;;;3.08;;
40669;SDS011;26355;45.528;9.234;2022-08-04T12:00:33;11.67;;;3.37;;
40669;SDS011;26355;45.528;9.234;2022-08-04T12:05:33;11.57;;;3.30;;
40669;SDS011;26355;45.528;9.234;2022-08-04T12:13:42;11.50;;;3.22;;
40669;SDS011;26355;45.528;9.234;2022-08-04T12:18:52;9.80;;;3.17;;
40669;SDS011;26355;45.528;9.234;2022-08-04T12:21:33;13.07;;;3.35;;
40669;SDS011;26355;45.528;9.234;2022-08-04T12:24:04;11.77;;;3.40;;
40669;SDS011;26355;45.528;9.234;2022-08-04T12:26:39;11.48;;;3.63;;
40669;SDS011;26355;45.528;9.234;2022-08-04T12:29:08;11.05;;;3.47;;
40669;SDS011;26355;45.528;9.234;2022-08-04T12:31:50;10.68;;;3.63;;
40669;SDS011;26355;45.528;9.234;2022-08-04T12:34:40;8.15;;;3.10;;
40669;SDS011;26355;45.528;9.234;2022-08-04T12:37:14;9.13;;;3.05;;
40669;SDS011;26355;45.528;9.234;2022-08-04T12:39:51;11.32;;;3.20;;
40669;SDS011;26355;45.528;9.234;2022-08-04T12:42:20;8.07;;;2.92;;
40669;SDS011;26355;45.528;9.234;2022-08-04T12:44:50;9.40;;;3.10;;
40669;SDS011;26355;45.528;9.234;2022-08-04T12:47:20;9.32;;;3.20;;
40669;SDS011;26355;45.528;9.234;2022-08-04T12:49:48;10.20;;;2.97;;
40669;SDS011;26355;45.528;9.234;2022-08-04T12:54:42;14.85;;;3.00;;
40669;SDS011;26355;45.528;9.234;2022-08-04T12:57:12;8.18;;;3.05;;
40669;SDS011;26355;45.528;9.234;2022-08-04T12:59:44;10.52;;;2.85;;
40669;SDS011;26355;45.528;9.234;2022-08-04T13:02:15;10.65;;;3.33;;
40669;SDS011;26355;45.528;9.234;2022-08-04T13:04:48;11.77;;;3.40;;
40669;SDS011;26355;45.528;9.234;2022-08-04T13:07:17;7.22;;;2.80;;
40669;SDS011;26355;45.528;9.234;2022-08-04T13:09:44;9.88;;;2.90;;
40669;SDS011;26355;45.528;9.234;2022-08-04T13:12:11;8.35;;;2.90;;
40669;SDS011;26355;45.528;9.234;2022-08-04T13:14:39;9.13;;;2.80;;
40669;SDS011;26355;45.528;9.234;2022-08-04T13:17:12;8.50;;;2.65;;
40669;SDS011;26355;45.528;9.234;2022-08-04T13:19:38;7.95;;;3.00;;
40669;SDS011;26355;45.528;9.234;2022-08-04T13:22:10;8.35;;;2.63;;
40669;SDS011;26355;45.528;9.234;2022-08-04T13:24:40;8.32;;;3.00;;
40669;SDS011;26355;45.528;9.234;2022-08-04T13:27:08;11.80;;;2.90;;
40669;SDS011;26355;45.528;9.234;2022-08-04T13:29:41;9.75;;;2.83;;
40669;SDS011;26355;45.528;9.234;2022-08-04T13:32:08;8.15;;;2.83;;
40669;SDS011;26355;45.528;9.234;2022-08-04T13:37:05;7.05;;;3.00;;
40669;SDS011;26355;45.528;9.234;2022-08-04T13:39:31;8.85;;;2.60;;
40669;SDS011;26355;45.528;9.234;2022-08-04T13:42:01;10.82;;;2.80;;
40669;SDS011;26355;45.528;9.234;2022-08-04T13:44:34;8.75;;;2.30;;
40669;SDS011;26355;45.528;9.234;2022-08-04T13:47:05;8.70;;;2.65;;
40669;SDS011;26355;45.528;9.234;2022-08-04T13:49:33;7.63;;;2.60;;
40669;SDS011;26355;45.528;9.234;2022-08-04T13:52:00;9.25;;;2.65;;
40669;SDS011;26355;45.528;9.234;2022-08-04T13:54:37;7.93;;;2.58;;
40669;SDS011;26355;45.528;9.234;2022-08-04T13:57:13;6.40;;;2.22;;
40669;SDS011;26355;45.528;9.234;2022-08-04T13:59:43;10.70;;;2.95;;
40669;SDS011;26355;45.528;9.234;2022-08-04T14:05:04;7.05;;;2.40;;
40669;SDS011;26355;45.528;9.234;2022-08-04T14:07:37;11.05;;;2.60;;
40669;SDS011;26355;45.528;9.234;2022-08-04T14:10:10;11.00;;;2.60;;
40669;SDS011;26355;45.528;9.234;2022-08-04T14:12:47;8.93;;;2.67;;
40669;SDS011;26355;45.528;9.234;2022-08-04T14:17:55;8.30;;;2.60;;
40669;SDS011;26355;45.528;9.234;2022-08-04T14:28:49;8.48;;;2.47;;
40669;SDS011;26355;45.528;9.234;2022-08-04T14:31:19;7.95;;;2.70;;
40669;SDS011;26355;45.528;9.234;2022-08-04T14:33:48;7.00;;;2.47;;
40669;SDS011;26355;45.528;9.234;2022-08-04T14:36:15;6.28;;;2.22;;
40669;SDS011;26355;45.528;9.234;2022-08-04T14:38:55;6.72;;;2.25;;
40669;SDS011;26355;45.528;9.234;2022-08-04T14:41:23;6.60;;;2.10;;
40669;SDS011;26355;45.528;9.234;2022-08-04T14:43:54;6.93;;;2.40;;
40669;SDS011;26355;45.528;9.234;2022-08-04T14:46:22;8.55;;;2.40;;
40669;SDS011;26355;45.528;9.234;2022-08-04T14:48:59;10.95;;;2.38;;
40669;SDS011;26355;45.528;9.234;2022-08-04T14:51:32;7.57;;;2.20;;
40669;SDS011;26355;45.528;9.234;2022-08-04T14:53:59;9.35;;;2.67;;
40669;SDS011;26355;45.528;9.234;2022-08-04T14:56:25;6.37;;;2.27;;
40669;SDS011;26355;45.528;9.234;2022-08-04T14:58:58;8.15;;;2.35;;
40669;SDS011;26355;45.528;9.234;2022-08-04T15:01:26;6.32;;;2.20;;
40669;SDS011;26355;45.528;9.234;2022-08-04T15:06:24;8.45;;;2.45;;
40669;SDS011;26355;45.528;9.234;2022-08-04T15:08:52;8.27;;;2.20;;
40669;SDS011;26355;45.528;9.234;2022-08-04T15:11:19;8.32;;;2.30;;
40669;SDS011;26355;45.528;9.234;2022-08-04T15:13:46;4.97;;;1.95;;
40669;SDS011;26355;45.528;9.234;2022-08-04T15:16:12;6.33;;;2.30;;
40669;SDS011;26355;45.528;9.234;2022-08-04T15:18:39;7.07;;;2.17;;
40669;SDS011;26355;45.528;9.234;2022-08-04T15:21:07;5.82;;;2.20;;
40669;SDS011;26355;45.528;9.234;2022-08-04T15:23:34;6.97;;;2.15;;
40669;SDS011;26355;45.528;9.234;2022-08-04T15:26:01;5.60;;;2.20;;
40669;SDS011;26355;45.528;9.234;2022-08-04T15:28:28;4.47;;;1.95;;
40669;SDS011;26355;45.528;9.234;2022-08-04T15:30:57;4.93;;;2.20;;
40669;SDS011;26355;45.528;9.234;2022-08-04T15:33:27;6.18;;;2.10;;
40669;SDS011;26355;45.528;9.234;2022-08-04T15:38:36;8.43;;;2.20;;
40669;SDS011;26355;45.528;9.234;2022-08-04T15:41:07;7.30;;;2.28;;
40669;SDS011;26355;45.528;9.234;2022-08-04T15:43:47;7.43;;;2.38;;
40669;SDS011;26355;45.528;9.234;2022-08-04T15:48:46;6.93;;;2.20;;
40669;SDS011;26355;45.528;9.234;2022-08-04T15:51:12;4.70;;;2.17;;
40669;SDS011;26355;45.528;9.234;2022-08-04T15:58:54;5.10;;;2.10;;
40669;SDS011;26355;45.528;9.234;2022-08-04T16:01:20;7.93;;;2.40;;
40669;SDS011;26355;45.528;9.234;2022-08-04T16:03:50;5.20;;;2.50;;
40669;SDS011;26355;45.528;9.234;2022-08-04T16:16:48;8.43;;;2.10;;
40669;SDS011;26355;45.528;9.234;2022-08-04T16:21:47;8.32;;;2.05;;
40669;SDS011;26355;45.528;9.234;2022-08-04T16:24:27;4.97;;;2.10;;
40669;SDS011;26355;45.528;9.234;2022-08-04T16:26:55;5.85;;;2.13;;
40669;SDS011;26355;45.528;9.234;2022-08-04T16:34:29;5.80;;;1.90;;
40669;SDS011;26355;45.528;9.234;2022-08-04T16:37:06;7.88;;;2.20;;
40669;SDS011;26355;45.528;9.234;2022-08-04T16:39:33;6.50;;;2.10;;
40669;SDS011;26355;45.528;9.234;2022-08-04T16:41:59;5.57;;;2.17;;
40669;SDS011;26355;45.528;9.234;2022-08-04T16:44:45;4.75;;;2.15;;
40669;SDS011;26355;45.528;9.234;2022-08-04T16:47:59;6.82;;;2.10;;
40669;SDS011;26355;45.528;9.234;2022-08-04T16:50:25;6.25;;;2.20;;
40669;SDS011;26355;45.528;9.234;2022-08-04T16:52:52;7.93;;;2.30;;
40669;SDS011;26355;45.528;9.234;2022-08-04T16:55:20;5.78;;;2.15;;
40669;SDS011;26355;45.528;9.234;2022-08-04T16:57:47;6.22;;;2.00;;
40669;SDS011;26355;45.528;9.234;2022-08-04T17:02:39;6.13;;;1.85;;
40669;SDS011;26355;45.528;9.234;2022-08-04T17:05:18;3.97;;;1.83;;
40669;SDS011;26355;45.528;9.234;2022-08-04T17:07:49;8.75;;;2.28;;
40669;SDS011;26355;45.528;9.234;2022-08-04T17:10:18;6.78;;;1.90;;
40669;SDS011;26355;45.528;9.234;2022-08-04T17:12:54;7.75;;;2.25;;
40669;SDS011;26355;45.528;9.234;2022-08-04T17:15:20;8.33;;;2.10;;
40669;SDS011;26355;45.528;9.234;2022-08-04T17:17:46;6.55;;;1.95;;
40669;SDS011;26355;45.528;9.234;2022-08-04T17:20:12;6.17;;;2.20;;
40669;SDS011;26355;45.528;9.234;2022-08-04T17:22:38;6.27;;;2.17;;
40669;SDS011;26355;45.528;9.234;2022-08-04T17:25:04;5.23;;;2.00;;
40669;SDS011;26355;45.528;9.234;2022-08-04T17:27:30;7.35;;;2.10;;
40669;SDS011;26355;45.528;9.234;2022-08-04T17:29:56;4.00;;;2.10;;
40669;SDS011;26355;45.528;9.234;2022-08-04T17:32:21;4.67;;;2.23;;
40669;SDS011;26355;45.528;9.234;2022-08-04T17:34:51;4.87;;;2.20;;
40669;SDS011;26355;45.528;9.234;2022-08-04T17:37:21;7.20;;;2.17;;
40669;SDS011;26355;45.528;9.234;2022-08-04T17:39:49;6.80;;;2.28;;
40669;SDS011;26355;45.528;9.234;2022-08-04T17:42:27;8.57;;;2.30;;
40669;SDS011;26355;45.528;9.234;2022-08-04T17:45:20;7.20;;;2.15;;
40669;SDS011;26355;45.528;9.234;2022-08-04T17:47:47;6.85;;;2.15;;
40669;SDS011;26355;45.528;9.234;2022-08-04T17:50:22;10.45;;;2.25;;
40669;SDS011;26355;45.528;9.234;2022-08-04T17:53:01;4.90;;;2.00;;
40669;SDS011;26355;45.528;9.234;2022-08-04T17:55:39;8.70;;;2.40;;
40669;SDS011;26355;45.528;9.234;2022-08-04T17:58:16;7.20;;;2.50;;
40669;SDS011;26355;45.528;9.234;2022-08-04T18:00:43;5.72;;;2.17;;
40669;SDS011;26355;45.528;9.234;2022-08-04T18:03:22;6.43;;;2.23;;
40669;SDS011;26355;45.528;9.234;2022-08-04T18:05:49;7.45;;;2.20;;
40669;SDS011;26355;45.528;9.234;2022-08-04T18:08:21;7.18;;;2.20;;
40669;SDS011;26355;45.528;9.234;2022-08-04T18:10:48;8.20;;;2.58;;
40669;SDS011;26355;45.528;9.234;2022-08-04T18:13:14;5.93;;;2.00;;
40669;SDS011;26355;45.528;9.234;2022-08-04T18:15:39;8.43;;;2.10;;
40669;SDS011;26355;45.528;9.234;2022-08-04T18:18:13;9.57;;;2.27;;
40669;SDS011;26355;45.528;9.234;2022-08-04T18:20:40;13.60;;;3.65;;
40669;SDS011;26355;45.528;9.234;2022-08-04T18:23:08;11.67;;;2.87;;
40669;SDS011;26355;45.528;9.234;2022-08-04T18:25:35;13.55;;;3.60;;
40669;SDS011;26355;45.528;9.234;2022-08-04T18:28:03;11.73;;;2.63;;
40669;SDS011;26355;45.528;9.234;2022-08-04T18:30:33;8.60;;;2.20;;
40669;SDS011;26355;45.528;9.234;2022-08-04T18:32:59;8.30;;;2.25;;
40669;SDS011;26355;45.528;9.234;2022-08-04T18:35:26;5.60;;;1.97;;
40669;SDS011;26355;45.528;9.234;2022-08-04T18:40:18;4.35;;;1.65;;
40669;SDS011;26355;45.528;9.234;2022-08-04T18:42:44;5.57;;;1.80;;
40669;SDS011;26355;45.528;9.234;2022-08-04T18:45:10;7.03;;;2.10;;
40669;SDS011;26355;45.528;9.234;2022-08-04T18:47:37;5.28;;;2.08;;
40669;SDS011;26355;45.528;9.234;2022-08-04T18:50:04;6.05;;;1.92;;
40669;SDS011;26355;45.528;9.234;2022-08-04T18:52:29;6.17;;;2.33;;
40669;SDS011;26355;45.528;9.234;2022-08-04T18:54:55;7.67;;;2.10;;
40669;SDS011;26355;45.528;9.234;2022-08-04T18:57:22;8.77;;;2.70;;
40669;SDS011;26355;45.528;9.234;2022-08-04T18:59:49;7.20;;;2.38;;
40669;SDS011;26355;45.528;9.234;2022-08-04T19:04:41;8.10;;;2.30;;
40669;SDS011;26355;45.528;9.234;2022-08-04T19:07:08;9.32;;;2.38;;
40669;SDS011;26355;45.528;9.234;2022-08-04T19:09:38;9.45;;;2.30;;
40669;SDS011;26355;45.528;9.234;2022-08-04T19:12:07;9.20;;;2.40;;
40669;SDS011;26355;45.528;9.234;2022-08-04T19:14:33;9.43;;;2.57;;
40669;SDS011;26355;45.528;9.234;2022-08-04T19:16:59;10.77;;;2.43;;
40669;SDS011;26355;45.528;9.234;2022-08-04T19:19:24;7.77;;;2.53;;
40669;SDS011;26355;45.528;9.234;2022-08-04T19:21:50;5.33;;;2.23;;
40669;SDS011;26355;45.528;9.234;2022-08-04T19:24:16;7.50;;;2.40;;
40669;SDS011;26355;45.528;9.234;2022-08-04T19:26:41;6.20;;;2.20;;
40669;SDS011;26355;45.528;9.234;2022-08-04T19:29:07;9.57;;;2.50;;
40669;SDS011;26355;45.528;9.234;2022-08-04T19:31:33;10.50;;;2.40;;
40669;SDS011;26355;45.528;9.234;2022-08-04T19:33:59;6.70;;;2.47;;
40669;SDS011;26355;45.528;9.234;2022-08-04T19:36:25;9.07;;;2.43;;
40669;SDS011;26355;45.528;9.234;2022-08-04T19:41:17;8.93;;;2.63;;
40669;SDS011;26355;45.528;9.234;2022-08-04T19:43:43;10.60;;;2.60;;
40669;SDS011;26355;45.528;9.234;2022-08-04T19:46:10;10.45;;;2.75;;
40669;SDS011;26355;45.528;9.234;2022-08-04T19:48:36;10.33;;;3.10;;
40669;SDS011;26355;45.528;9.234;2022-08-04T19:51:02;10.93;;;2.77;;
40669;SDS011;26355;45.528;9.234;2022-08-04T19:53:27;12.27;;;3.00;;
40669;SDS011;26355;45.528;9.234;2022-08-04T19:55:53;7.40;;;3.00;;
40669;SDS011;26355;45.528;9.234;2022-08-04T19:58:19;9.37;;;2.90;;
40669;SDS011;26355;45.528;9.234;2022-08-04T20:00:44;9.80;;;2.60;;
40669;SDS011;26355;45.528;9.234;2022-08-04T20:03:10;7.97;;;2.60;;
40669;SDS011;26355;45.528;9.234;2022-08-04T20:05:40;11.35;;;2.90;;
40669;SDS011;26355;45.528;9.234;2022-08-04T20:08:08;7.07;;;2.58;;
40669;SDS011;26355;45.528;9.234;2022-08-04T20:10:33;7.83;;;2.70;;
40669;SDS011;26355;45.528;9.234;2022-08-04T20:12:59;8.57;;;2.70;;
40669;SDS011;26355;45.528;9.234;2022-08-04T20:15:25;8.50;;;3.10;;
40669;SDS011;26355;45.528;9.234;2022-08-04T20:17:50;9.97;;;3.00;;
40669;SDS011;26355;45.528;9.234;2022-08-04T20:20:16;10.37;;;3.10;;
40669;SDS011;26355;45.528;9.234;2022-08-04T20:22:42;7.50;;;3.00;;
40669;SDS011;26355;45.528;9.234;2022-08-04T20:25:07;12.37;;;3.60;;
40669;SDS011;26355;45.528;9.234;2022-08-04T20:30:00;8.93;;;2.97;;
40669;SDS011;26355;45.528;9.234;2022-08-04T20:32:25;14.03;;;3.27;;
40669;SDS011;26355;45.528;9.234;2022-08-04T20:34:52;9.13;;;3.00;;
40669;SDS011;26355;45.528;9.234;2022-08-04T20:37:20;9.80;;;2.97;;